Time;durP1;ratioP1;P1;durP2;ratioP2;P2;SDS_P1;SDS_P2;PMS_P1;PMS_P2;Temp;Humidity;BMP_temperature;BMP_pressure;BME280_temperature;BME280_humidity;BME280_pressure;Samples;Min_cycle;Max_cycle;Signal;HPM_P1;HPM_P2
2022/11/11 00:02:18;;;;;;;;;;;;;;;;;;5055843;28;7490;-64
2022/11/11 00:04:43;;;;;;;;;;;;;;;;;;5055798;28;6817;-64
2022/11/11 00:07:17;;;;;;;;;;;;;;;;;;5055224;28;7011;-64
2022/11/11 00:09:43;;;;;;;;;;;;;;;;;;5034673;28;8198;-64
2022/11/11 00:12:08;;;;;;;;;;;;;;;;;;5053742;28;7412;-64
2022/11/11 00:14:34;;;;;;;;;;;;;;;;;;5054976;28;7289;-64
2022/11/11 00:25:37;;;;;;;;;;;;;;;;;;5058968;28;7473;-63
2022/11/11 00:31:07;;;;;;;;;;;;;;;;;;5058479;28;6920;-64
2022/11/11 00:33:33;;;;;;;;;;;;;;;;;;5055697;28;7077;-64
2022/11/11 00:36:23;;;;;;;;;;;;;;;;;;5058486;28;6895;-64
2022/11/11 00:38:48;;;;;;;;;;;;;;;;;;5059442;28;7115;-64
2022/11/11 00:41:16;;;;;;;;;;;;;;;;;;5056896;28;6961;-64
2022/11/11 00:43:53;;;;;;;;;;;;;;;;;;5058301;28;7211;-64
2022/11/11 00:51:47;;;;;;;;;;;;;;;;;;5057427;28;6913;-65
2022/11/11 00:54:22;;;;;;;;;;;;;;;;;;5057652;28;6807;-65
2022/11/11 00:56:47;;;;;;;;;;;;;;;;;;5057733;28;6976;-65
2022/11/11 00:59:13;;;;;;;;;;;;;;;;;;5057644;28;7129;-65
2022/11/11 01:02:04;;;;;;;;;;;;;;;;;;5058118;28;7366;-64
2022/11/11 01:04:29;;;;;;;;;;;;;;;;;;5058435;28;7318;-64
2022/11/11 01:07:05;;;;;;;;;;;;;;;;;;5040145;28;8665;-64
2022/11/11 01:09:31;;;;;;;;;;;;;;;;;;5058145;28;6955;-64
2022/11/11 01:11:56;;;;;;;;;;;;;;;;;;5058036;28;7120;-64
2022/11/11 01:14:22;;;;;;;;;;;;;;;;;;5058675;28;7089;-64
2022/11/11 01:16:47;;;;;;;;;;;;;;;;;;5057931;28;7419;-64
2022/11/11 01:19:13;;;;;;;;;;;;;;;;;;5057737;28;7168;-64
2022/11/11 01:24:41;;;;;;;;;;;;;;;;;;5057512;28;6694;-64
2022/11/11 01:27:07;;;;;;;;;;;;;;;;;;5057259;28;6995;-64
2022/11/11 01:30:05;;;;;;;;;;;;;;;;;;5059013;28;7099;-64
2022/11/11 01:32:31;;;;;;;;;;;;;;;;;;5058756;28;7769;-63
2022/11/11 01:34:56;;;;;;;;;;;;;;;;;;5039661;28;7169;-64
2022/11/11 01:37:24;;;;;;;;;;;;;;;;;;5058263;28;7169;-63
2022/11/11 01:39:49;;;;;;;;;;;;;;;;;;5057862;28;6971;-63
2022/11/11 01:42:16;;;;;;;;;;;;;;;;;;5056869;28;7179;-63
2022/11/11 01:44:46;;;;;;;;;;;;;;;;;;5040187;28;7134;-63
2022/11/11 01:47:20;;;;;;;;;;;;;;;;;;5037506;28;7397;-63
2022/11/11 01:49:57;;;;;;;;;;;;;;;;;;5037145;28;7219;-63
2022/11/11 01:52:37;;;;;;;;;;;;;;;;;;5037070;28;7201;-63
2022/11/11 01:55:18;;;;;;;;;;;;;;;;;;5038381;28;7208;-63
2022/11/11 01:58:01;;;;;;;;;;;;;;;;;;5037491;28;7207;-63
2022/11/11 02:00:27;;;;;;;;;;;;;;;;;;5036786;28;7335;-63
2022/11/11 02:03:04;;;;;;;;;;;;;;;;;;5038493;28;7048;-63
2022/11/11 02:05:44;;;;;;;;;;;;;;;;;;5035806;28;8378;-63
2022/11/11 02:08:12;;;;;;;;;;;;;;;;;;5036409;28;7257;-63
2022/11/11 02:10:42;;;;;;;;;;;;;;;;;;5036521;28;7202;-63
2022/11/11 02:15:57;;;;;;;;;;;;;;;;;;5037345;28;6800;-63
2022/11/11 02:18:23;;;;;;;;;;;;;;;;;;5036810;28;7420;-63
2022/11/11 02:21:00;;;;;;;;;;;;;;;;;;5037460;28;7354;-63
2022/11/11 02:23:34;;;;;;;;;;;;;;;;;;5037358;28;6955;-63
2022/11/11 02:26:02;;;;;;;;;;;;;;;;;;5037250;28;7076;-63
2022/11/11 02:28:31;;;;;;;;;;;;;;;;;;5037015;28;7066;-63
2022/11/11 02:30:56;;;;;;;;;;;;;;;;;;5036776;28;7268;-63
2022/11/11 02:33:22;;;;;;;;;;;;;;;;;;5036304;28;6941;-63
2022/11/11 02:36:11;;;;;;;;;;;;;;;;;;5037536;28;6818;-63
2022/11/11 02:38:36;;;;;;;;;;;;;;;;;;5038349;28;6867;-63
2022/11/11 02:44:11;;;;;;;;;;;;;;;;;;5055881;28;6753;-64
2022/11/11 02:46:36;;;;;;;;;;;;;;;;;;5056904;28;6826;-64
2022/11/11 02:49:17;;;;;;;;;;;;;;;;;;5055842;28;7191;-64
2022/11/11 02:51:43;;;;;;;;;;;;;;;;;;5055313;28;7418;-64
2022/11/11 02:54:08;;;;;;;;;;;;;;;;;;5055558;28;7087;-64
2022/11/11 02:59:23;;;;;;;;;;;;;;;;;;5056253;28;6983;-63
2022/11/11 03:01:48;;;;;;;;;;;;;;;;;;5055955;28;7251;-63
2022/11/11 03:04:37;;;;;;;;;;;;;;;;;;5056100;28;7340;-63
2022/11/11 03:07:03;;;;;;;;;;;;;;;;;;5055556;28;7918;-63
2022/11/11 03:09:30;;;;;;;;;;;;;;;;;;5056477;28;6997;-62
2022/11/11 03:11:55;;;;;;;;;;;;;;;;;;5054940;28;7396;-62
2022/11/11 03:14:21;;;;;;;;;;;;;;;;;;5055385;28;7087;-62
2022/11/11 03:19:39;;;;;;;;;;;;;;;;;;5055076;28;6938;-63
2022/11/11 03:22:12;;;;;;;;;;;;;;;;;;5055328;28;6949;-63
2022/11/11 03:27:34;;;;;;;;;;;;;;;;;;5055763;28;6919;-62
2022/11/11 03:30:00;;;;;;;;;;;;;;;;;;5054474;28;7015;-63
2022/11/11 03:32:25;;;;;;;;;;;;;;;;;;5037503;28;8454;-63
2022/11/11 03:34:50;;;;;;;;;;;;;;;;;;5054685;28;7053;-62
2022/11/11 03:40:02;;;;;;;;;;;;;;;;;;5036153;28;7051;-63
2022/11/11 03:42:29;;;;;;;;;;;;;;;;;;5035422;28;7182;-63
2022/11/11 03:44:54;;;;;;;;;;;;;;;;;;5035007;28;7203;-62
2022/11/11 03:47:30;;;;;;;;;;;;;;;;;;5035522;28;7028;-63
2022/11/11 03:49:55;;;;;;;;;;;;;;;;;;5034674;28;7082;-63
2022/11/11 03:52:21;;;;;;;;;;;;;;;;;;5035058;28;6976;-63
2022/11/11 03:54:47;;;;;;;;;;;;;;;;;;5037479;28;7126;-63
2022/11/11 03:57:51;;;;;;;;;;;;;;;;;;5038821;28;7427;-63
2022/11/11 04:00:29;;;;;;;;;;;;;;;;;;5036474;28;6915;-62
2022/11/11 04:11:53;;;;;;;;;;;;;;;;;;5059419;28;6977;-63
2022/11/11 04:17:10;;;;;;;;;;;;;;;;;;5058720;28;6812;-63
2022/11/11 04:22:53;;;;;;;;;;;;;;;;;;5038385;28;6985;-64
2022/11/11 04:30:46;;;;;;;;;;;;;;;;;;5058279;28;6808;-63
2022/11/11 04:33:19;;;;;;;;;;;;;;;;;;5057263;28;7206;-63
2022/11/11 04:35:47;;;;;;;;;;;;;;;;;;5058378;28;7358;-62
2022/11/11 04:41:04;;;;;;;;;;;;;;;;;;5058238;28;6989;-62
2022/11/11 04:43:30;;;;;;;;;;;;;;;;;;5051215;28;7292;-63
2022/11/11 04:46:18;;;;;;;;;;;;;;;;;;5058901;28;7009;-62
2022/11/11 04:48:44;;;;;;;;;;;;;;;;;;5058553;28;6968;-63
2022/11/11 04:52:25;;;;;;;;;;;;;;;;;;5057691;28;7033;-62
2022/11/11 04:54:19;;;;;;;;;;;;;;;;;;5057860;28;7727;-62
2022/11/11 04:56:48;;;;;;;;;;;;;;;;;;5043079;28;8156;-62
2022/11/11 04:59:18;;;;;;;;;;;;;;;;;;5037445;28;6949;-62
2022/11/11 05:04:29;;;;;;;;;;;;;;;;;;5038464;28;6945;-63
2022/11/11 05:09:46;;;;;;;;;;;;;;;;;;5057445;28;6796;-63
2022/11/11 05:12:11;;;;;;;;;;;;;;;;;;5057308;28;7036;-63
2022/11/11 05:22:52;;;;;;;;;;;;;;;;;;5057279;28;6934;-63
2022/11/11 05:25:27;;;;;;;;;;;;;;;;;;5057300;28;7201;-63
2022/11/11 05:27:54;;;;;;;;;;;;;;;;;;5057021;28;7047;-62
2022/11/11 05:30:21;;;;;;;;;;;;;;;;;;5034096;28;8433;-62
2022/11/11 05:32:47;;;;;;;;;;;;;;;;;;5057102;28;6985;-62
2022/11/11 05:35:13;;;;;;;;;;;;;;;;;;5057568;28;7219;-62
2022/11/11 05:37:39;;;;;;;;;;;;;;;;;;5056774;28;7203;-62
2022/11/11 05:40:24;;;;;;;;;;;;;;;;;;5056633;28;7200;-63
2022/11/11 05:42:49;;;;;;;;;;;;;;;;;;5045117;28;6991;-63
2022/11/11 05:45:20;;;;;;;;;;;;;;;;;;5036886;28;7107;-64
2022/11/11 05:47:45;;;;;;;;;;;;;;;;;;5049396;28;8451;-62
2022/11/11 05:50:11;;;;;;;;;;;;;;;;;;5057884;28;6944;-62
2022/11/11 05:52:46;;;;;;;;;;;;;;;;;;5057790;28;7189;-62
2022/11/11 05:55:12;;;;;;;;;;;;;;;;;;5056675;28;7307;-62
2022/11/11 05:57:43;;;;;;;;;;;;;;;;;;5058253;28;7118;-62
2022/11/11 06:00:09;;;;;;;;;;;;;;;;;;5056938;28;6979;-62
2022/11/11 06:02:37;;;;;;;;;;;;;;;;;;5057234;28;7218;-62
2022/11/11 06:05:06;;;;;;;;;;;;;;;;;;5057109;28;6833;-62
2022/11/11 06:07:32;;;;;;;;;;;;;;;;;;5056555;28;7750;-62
2022/11/11 06:10:29;;;;;;;;;;;;;;;;;;5057192;28;7144;-62
2022/11/11 06:15:37;;;;;;;;;;;;;;;;;;5056526;28;6968;-63
2022/11/11 06:18:03;;;;;;;;;;;;;;;;;;5055755;28;7188;-63
2022/11/11 06:20:30;;;;;;;;;;;;;;;;;;5056204;28;7132;-63
2022/11/11 06:23:18;;;;;;;;;;;;;;;;;;5056367;28;7177;-62
2022/11/11 06:28:28;;;;;;;;;;;;;;;;;;5056727;28;6813;-62
2022/11/11 06:30:54;;;;;;;;;;;;;;;;;;5055316;28;8611;-62
2022/11/11 06:33:20;;;;;;;;;;;;;;;;;;5053745;28;7178;-63
2022/11/11 06:35:46;;;;;;;;;;;;;;;;;;5045357;28;7203;-62
2022/11/11 06:41:09;;;;;;;;;;;;;;;;;;5040810;28;7065;-63
2022/11/11 06:43:41;;;;;;;;;;;;;;;;;;5033598;28;7047;-63
2022/11/11 06:46:13;;;;;;;;;;;;;;;;;;5038314;28;7051;-63
2022/11/11 06:51:08;;;;;;;;;;;;;;;;;;5055245;28;6828;-63
2022/11/11 06:53:51;;;;;;;;;;;;;;;;;;;;;
2022/11/11 06:56:27;;;;;;;;;;;;;;;;;;5045331;28;6811;-63
2022/11/11 07:02:05;;;;;;;;;;;;;;;;;;5035001;28;6944;-63
2022/11/11 07:04:48;;;;;;;;;;;;;;;;;;5010524;28;6984;-63
2022/11/11 07:10:06;;;;;;;;;;;;;;;;;;5055596;28;6789;-63
2022/11/11 07:12:31;;;;;;;;;;;;;;;;;;5055772;28;7214;-63
2022/11/11 07:15:12;;;;;;;;;;;;;;;;;;5054950;28;7307;-63
2022/11/11 07:17:37;;;;;;;;;;;;;;;;;;5055977;28;7384;-63
2022/11/11 07:20:11;;;;;;;;;;;;;;;;;;5055711;28;7144;-63
2022/11/11 07:22:36;;;;;;;;;;;;;;;;;;5045236;28;7197;-63
2022/11/11 07:25:03;;;;;;;;;;;;;;;;;;5054868;28;7216;-64
2022/11/11 07:27:28;;;;;;;;;;;;;;;;;;5055478;28;6910;-64
2022/11/11 07:30:04;;;;;;;;;;;;;;;;;;5039332;28;7156;-65
2022/11/11 07:32:29;;;;;;;;;;;;;;;;;;5044476;28;6942;-64
2022/11/11 07:34:54;;;;;;;;;;;;;;;;;;5055103;28;7100;-63
2022/11/11 07:37:39;;;;;;;;;;;;;;;;;;5055457;28;7105;-63
2022/11/11 07:40:05;;;;;;;;;;;;;;;;;;5054736;28;7293;-63
2022/11/11 07:42:35;;;;;;;;;;;;;;;;;;5055687;28;7037;-63
2022/11/11 07:45:00;;;;;;;;;;;;;;;;;;5056553;28;7043;-63
2022/11/11 07:47:27;;;;;;;;;;;;;;;;;;5055367;28;7150;-63
2022/11/11 07:49:52;;;;;;;;;;;;;;;;;;5054930;28;6831;-63
2022/11/11 07:52:22;;;;;;;;;;;;;;;;;;5052931;28;7165;-64
2022/11/11 08:24:13;;;;;;;;;;;;;;;;;;5859854;23;7354;-81
2022/11/11 08:26:41;;;;;;;;;;;;;;;;;;5005873;28;8871;-80
2022/11/11 08:29:06;;;;;;;;;;;;;;;;;;5006396;28;7218;-80
2022/11/11 08:31:34;;;;;;;;;;;;;;;;;;4992852;28;8481;-79
2022/11/11 08:33:59;;;;;;;;;;;;;;;;;;4993638;28;8319;-80
2022/11/11 08:36:25;;;;;;;;;;;;;;;;;;5001831;28;7165;-80
2022/11/11 08:38:51;;;;;;;;;;;;;;;;;;5010834;28;7264;-79
2022/11/11 08:41:17;;;;;;;;;;;;;;;;;;5015119;28;8608;-81
2022/11/11 08:43:42;;;;;;;;;;;;;;;;;;5016365;28;7072;-80
2022/11/11 08:46:10;;;;;;;;;;;;;;;;;;5017221;28;7167;-80
2022/11/11 08:48:36;;;;;;;;;;;;;;;;;;5013467;28;7257;-81
2022/11/11 08:51:01;;;;;;;;;;;;;;;;;;5015388;28;7035;-81
2022/11/11 08:53:27;;;;;;;;;;;;;;;;;;5015881;28;7010;-81
2022/11/11 08:55:55;;;;;;;;;;;;;;;;;;5016336;28;7117;-82
2022/11/11 08:58:21;;;;;;;;;;;;;;;;;;5016406;28;8423;-80
2022/11/11 09:00:46;;;;;;;;;;;;;;;;;;5015425;28;7377;-81
2022/11/11 09:03:12;;;;;;;;;;;;;;;;;;5014992;28;8298;-81
2022/11/11 09:05:38;;;;;;;;;;;;;;;;;;5014992;28;7154;-80
2022/11/11 09:08:08;;;;;;;;;;;;;;;;;;5015504;28;7049;-80
2022/11/11 09:10:35;;;;;;;;;;;;;;;;;;4996337;28;8342;-80
2022/11/11 09:13:07;;;;;;;;;;;;;;;;;;5002232;28;7139;-80
2022/11/11 09:15:33;;;;;;;;;;;;;;;;;;4996057;28;7086;-80
2022/11/11 09:18:00;;;;;;;;;;;;;;;;;;4997417;28;7286;-81
2022/11/11 09:20:26;;;;;;;;;;;;;;;;;;4996219;28;7251;-81
2022/11/11 09:22:52;;;;;;;;;;;;;;;;;;5004591;28;8688;-81
2022/11/11 09:25:18;;;;;;;;;;;;;;;;;;4995487;28;8699;-79
2022/11/11 09:27:43;;;;;;;;;;;;;;;;;;4999930;28;8308;-79
2022/11/11 09:30:10;;;;;;;;;;;;;;;;;;4995244;28;8503;-77
2022/11/11 09:32:35;;;;;;;;;;;;;;;;;;5003109;28;7215;-77
2022/11/11 09:35:01;;;;;;;;;;;;;;;;;;5015298;28;8250;-77
2022/11/11 09:37:57;;;;;;;;;;;;;;;;;;;;;
2022/11/11 09:40:54;;;;;;;;;;;;;;;;;;4996360;28;7018;-82
2022/11/11 09:43:45;;;;;;;;;;;;;;;;;;5009666;28;7036;-82
2022/11/11 09:46:18;;;;;;;;;;;;;;;;;;5014682;28;8208;-83
2022/11/11 09:48:49;;;;;;;;;;;;;;;;;;5030984;28;7106;-81
2022/11/11 09:51:20;;;;;;;;;;;;;;;;;;5031102;28;7055;-81
2022/11/11 09:53:53;;;;;;;;;;;;;;;;;;5032047;28;7121;-82
2022/11/11 09:56:21;;;;;;;;;;;;;;;;;;5031500;28;7154;-81
2022/11/11 09:58:51;;;;;;;;;;;;;;;;;;5032142;28;7364;-82
2022/11/11 10:01:20;;;;;;;;;;;;;;;;;;5028490;28;8452;-81
2022/11/11 10:03:51;;;;;;;;;;;;;;;;;;5015259;28;7242;-80
2022/11/11 10:06:23;;;;;;;;;;;;;;;;;;5015429;28;8398;-80
2022/11/11 10:09:01;;;;;;;;;;;;;;;;;;5015394;28;7090;-80
2022/11/11 10:11:44;;;;;;;;;;;;;;;;;;5032554;28;7185;-80
2022/11/11 10:14:10;;;;;;;;;;;;;;;;;;5015083;28;7177;-79
2022/11/11 10:17:04;;;;;;;;;;;;;;;;;;5013580;28;7025;-80
2022/11/11 10:19:33;;;;;;;;;;;;;;;;;;5014629;28;7125;-80
2022/11/11 10:22:03;;;;;;;;;;;;;;;;;;5014728;28;8730;-81
2022/11/11 10:24:33;;;;;;;;;;;;;;;;;;5014483;28;7338;-81
2022/11/11 10:27:03;;;;;;;;;;;;;;;;;;5015112;28;8548;-80
2022/11/11 10:29:39;;;;;;;;;;;;;;;;;;5014716;28;8583;-81
2022/11/11 10:32:14;;;;;;;;;;;;;;;;;;5015393;28;7181;-80
2022/11/11 10:34:40;;;;;;;;;;;;;;;;;;5014153;28;7170;-81
2022/11/11 10:37:17;;;;;;;;;;;;;;;;;;5014087;28;8374;-82
2022/11/11 10:39:51;;;;;;;;;;;;;;;;;;5014510;28;8464;-82
2022/11/11 10:42:17;;;;;;;;;;;;;;;;;;5030877;28;8402;-81
2022/11/11 10:44:43;;;;;;;;;;;;;;;;;;5013852;28;8273;-81
2022/11/11 10:47:38;;;;;;;;;;;;;;;;;;5013013;28;7319;-75
2022/11/11 10:50:20;;;;;;;;;;;;;;;;;;4998892;28;8440;-80
2022/11/11 10:52:58;;;;;;;;;;;;;;;;;;5001558;28;8445;-79
2022/11/11 10:55:32;;;;;;;;;;;;;;;;;;5011221;28;8460;-81
2022/11/11 10:58:05;;;;;;;;;;;;;;;;;;4995704;28;8461;-81
2022/11/11 11:00:34;;;;;;;;;;;;;;;;;;5013093;28;8757;-79
2022/11/11 11:03:13;;;;;;;;;;;;;;;;;;5013867;28;7002;-80
2022/11/11 11:05:38;;;;;;;;;;;;;;;;;;5014266;28;8520;-80
2022/11/11 11:08:26;;;;;;;;;;;;;;;;;;5030822;28;8570;-82
2022/11/11 11:11:02;;;;;;;;;;;;;;;;;;5004297;28;7167;-81
2022/11/11 11:13:38;;;;;;;;;;;;;;;;;;5009506;28;8029;-80
2022/11/11 11:16:08;;;;;;;;;;;;;;;;;;4994208;28;7062;-80
2022/11/11 11:18:34;;;;;;;;;;;;;;;;;;4995031;28;6853;-81
2022/11/11 11:21:02;;;;;;;;;;;;;;;;;;4994380;28;7175;-80
2022/11/11 11:23:41;;;;;;;;;;;;;;;;;;4997193;28;7160;-80
2022/11/11 11:26:09;;;;;;;;;;;;;;;;;;5013724;28;8343;-81
2022/11/11 11:28:35;;;;;;;;;;;;;;;;;;5014599;28;8441;-83
2022/11/11 11:31:05;;;;;;;;;;;;;;;;;;5013811;28;7159;-80
2022/11/11 11:33:49;;;;;;;;;;;;;;;;;;5014069;28;8423;-81
2022/11/11 11:36:16;;;;;;;;;;;;;;;;;;5014365;28;7166;-81
2022/11/11 11:38:46;;;;;;;;;;;;;;;;;;5010452;28;7155;-80
2022/11/11 11:41:12;;;;;;;;;;;;;;;;;;5013382;28;7068;-80
2022/11/11 11:43:41;;;;;;;;;;;;;;;;;;5013892;28;8398;-80
2022/11/11 11:46:17;;;;;;;;;;;;;;;;;;5013390;28;7266;-81
2022/11/11 11:48:58;;;;;;;;;;;;;;;;;;5013635;28;8478;-81
2022/11/11 11:51:36;;;;;;;;;;;;;;;;;;5029965;28;7266;-81
2022/11/11 11:54:20;;;;;;;;;;;;;;;;;;5029949;28;8595;-80
2022/11/11 11:56:49;;;;;;;;;;;;;;;;;;5030183;28;6856;-81
2022/11/11 11:59:36;;;;;;;;;;;;;;;;;;5013516;28;7167;-80
2022/11/11 12:02:20;;;;;;;;;;;;;;;;;;5013748;28;8461;-81
2022/11/11 12:04:52;;;;;;;;;;;;;;;;;;5030907;28;8306;-80
2022/11/11 12:07:32;;;;;;;;;;;;;;;;;;5031047;28;8374;-81
2022/11/11 12:10:08;;;;;;;;;;;;;;;;;;5014301;28;8373;-81
2022/11/11 12:12:50;;;;;;;;;;;;;;;;;;5013448;28;8484;-80
2022/11/11 12:15:26;;;;;;;;;;;;;;;;;;5014344;28;8501;-82
2022/11/11 12:18:10;;;;;;;;;;;;;;;;;;5017191;28;8472;-81
2022/11/11 12:20:42;;;;;;;;;;;;;;;;;;5034180;28;8429;-81
2022/11/11 12:23:07;;;;;;;;;;;;;;;;;;5017140;28;8397;-80
2022/11/11 12:25:45;;;;;;;;;;;;;;;;;;5033574;28;8375;-80
2022/11/11 12:28:14;;;;;;;;;;;;;;;;;;5017165;28;7044;-81
2022/11/11 12:30:47;;;;;;;;;;;;;;;;;;5033563;28;8815;-81
2022/11/11 12:33:13;;;;;;;;;;;;;;;;;;5016913;28;7035;-81
2022/11/11 12:35:38;;;;;;;;;;;;;;;;;;5033921;28;8302;-81
2022/11/11 12:38:07;;;;;;;;;;;;;;;;;;5033218;28;7086;-82
2022/11/11 12:41:08;;;;;;;;;;;;;;;;;;;;;
2022/11/11 12:43:56;;;;;;;;;;;;;;;;;;5016359;28;7408;-76
2022/11/11 12:46:34;;;;;;;;;;;;;;;;;;4996862;28;7039;-80
2022/11/11 12:49:08;;;;;;;;;;;;;;;;;;5013166;28;7214;-82
2022/11/11 12:51:55;;;;;;;;;;;;;;;;;;5013746;28;7407;-80
2022/11/11 12:54:39;;;;;;;;;;;;;;;;;;5012798;28;8358;-78
2022/11/11 12:57:08;;;;;;;;;;;;;;;;;;5013183;28;8332;-80
2022/11/11 12:59:54;;;;;;;;;;;;;;;;;;5013389;28;8439;-81
2022/11/11 13:02:46;;;;;;;;;;;;;;;;;;5013044;28;7343;-79
2022/11/11 13:05:14;;;;;;;;;;;;;;;;;;5013417;28;8278;-81
2022/11/11 13:07:40;;;;;;;;;;;;;;;;;;5013193;28;8723;-81
2022/11/11 13:10:14;;;;;;;;;;;;;;;;;;5013042;28;8401;-82
2022/11/11 13:12:53;;;;;;;;;;;;;;;;;;5013106;28;8721;-80
2022/11/11 13:15:18;;;;;;;;;;;;;;;;;;5013209;28;7170;-82
2022/11/11 13:17:44;;;;;;;;;;;;;;;;;;5012735;28;6992;-80
2022/11/11 13:20:30;;;;;;;;;;;;;;;;;;5012557;28;8304;-80
2022/11/11 13:22:56;;;;;;;;;;;;;;;;;;5005631;28;7035;-81
2022/11/11 13:25:23;;;;;;;;;;;;;;;;;;5012542;28;7419;-81
2022/11/11 13:27:53;;;;;;;;;;;;;;;;;;5012980;28;7051;-81
2022/11/11 13:30:41;;;;;;;;;;;;;;;;;;5013355;28;7179;-82
2022/11/11 13:33:17;;;;;;;;;;;;;;;;;;5012507;28;7064;-81
2022/11/11 13:35:46;;;;;;;;;;;;;;;;;;5012760;28;7171;-80
2022/11/11 13:38:26;;;;;;;;;;;;;;;;;;5012849;28;8483;-80
2022/11/11 13:40:54;;;;;;;;;;;;;;;;;;5012510;28;8450;-82
2022/11/11 13:43:26;;;;;;;;;;;;;;;;;;5012855;28;7138;-81
2022/11/11 13:45:54;;;;;;;;;;;;;;;;;;5012978;28;8486;-81
2022/11/11 13:48:27;;;;;;;;;;;;;;;;;;5012189;28;8353;-82
2022/11/11 13:51:10;;;;;;;;;;;;;;;;;;5013085;28;7228;-81
2022/11/11 13:53:38;;;;;;;;;;;;;;;;;;5012006;28;7188;-81
2022/11/11 13:56:04;;;;;;;;;;;;;;;;;;5011901;28;7217;-81
2022/11/11 13:58:35;;;;;;;;;;;;;;;;;;5012177;28;7189;-81
2022/11/11 14:01:10;;;;;;;;;;;;;;;;;;5012393;28;8864;-81
2022/11/11 14:03:56;;;;;;;;;;;;;;;;;;5011854;28;8401;-80
2022/11/11 14:06:21;;;;;;;;;;;;;;;;;;5011509;28;8738;-82
2022/11/11 14:08:46;;;;;;;;;;;;;;;;;;5011918;28;8308;-82
2022/11/11 14:11:24;;;;;;;;;;;;;;;;;;5011848;28;7083;-82
2022/11/11 14:13:51;;;;;;;;;;;;;;;;;;5011507;28;7136;-81
2022/11/11 14:16:35;;;;;;;;;;;;;;;;;;5011404;28;8804;-80
2022/11/11 14:19:19;;;;;;;;;;;;;;;;;;5011773;28;8572;-81
2022/11/11 14:21:59;;;;;;;;;;;;;;;;;;5012341;28;8506;-82
2022/11/11 14:24:38;;;;;;;;;;;;;;;;;;5011413;28;8279;-83
2022/11/11 14:27:09;;;;;;;;;;;;;;;;;;5011814;28;7106;-81
2022/11/11 14:29:47;;;;;;;;;;;;;;;;;;5011996;28;7205;-82
2022/11/11 14:32:31;;;;;;;;;;;;;;;;;;5011259;28;8637;-79
2022/11/11 14:35:15;;;;;;;;;;;;;;;;;;5011408;28;8529;-81
2022/11/11 14:38:02;;;;;;;;;;;;;;;;;;5010854;28;8316;-81
2022/11/11 14:40:31;;;;;;;;;;;;;;;;;;5012001;28;7026;-78
2022/11/11 14:42:57;;;;;;;;;;;;;;;;;;5011156;28;7498;-78
2022/11/11 14:45:26;;;;;;;;;;;;;;;;;;5011386;28;7035;-78
2022/11/11 14:47:52;;;;;;;;;;;;;;;;;;5011247;28;8422;-78
2022/11/11 14:50:29;;;;;;;;;;;;;;;;;;5011464;28;7132;-78
2022/11/11 14:52:57;;;;;;;;;;;;;;;;;;5011340;28;8767;-77
2022/11/11 14:55:22;;;;;;;;;;;;;;;;;;5011605;28;7044;-81
2022/11/11 14:57:56;;;;;;;;;;;;;;;;;;5011218;28;8680;-81
2022/11/11 15:00:22;;;;;;;;;;;;;;;;;;5011616;28;7104;-81
2022/11/11 15:02:51;;;;;;;;;;;;;;;;;;5011319;28;8258;-80
2022/11/11 15:05:39;;;;;;;;;;;;;;;;;;5011551;28;8304;-80
2022/11/11 15:08:05;;;;;;;;;;;;;;;;;;4992129;28;8327;-81
2022/11/11 15:10:38;;;;;;;;;;;;;;;;;;5010964;28;8463;-80
2022/11/11 15:13:21;;;;;;;;;;;;;;;;;;5010863;28;7160;-81
2022/11/11 15:15:59;;;;;;;;;;;;;;;;;;5011544;28;8597;-81
2022/11/11 15:18:41;;;;;;;;;;;;;;;;;;5010898;28;8366;-81
2022/11/11 15:21:17;;;;;;;;;;;;;;;;;;5011354;28;7155;-81
2022/11/11 15:24:06;;;;;;;;;;;;;;;;;;5010495;28;7160;-80
2022/11/11 15:26:34;;;;;;;;;;;;;;;;;;5009999;28;9048;-80
2022/11/11 15:29:09;;;;;;;;;;;;;;;;;;5010850;28;8472;-79
2022/11/11 15:31:37;;;;;;;;;;;;;;;;;;5011275;28;7121;-80
2022/11/11 15:34:06;;;;;;;;;;;;;;;;;;5010318;28;8610;-80
2022/11/11 15:36:40;;;;;;;;;;;;;;;;;;5011696;28;7113;-79
2022/11/11 15:39:12;;;;;;;;;;;;;;;;;;5010646;28;8310;-80
2022/11/11 15:41:40;;;;;;;;;;;;;;;;;;5010519;28;7196;-81
2022/11/11 15:44:28;;;;;;;;;;;;;;;;;;5011048;28;8936;-80
2022/11/11 15:46:56;;;;;;;;;;;;;;;;;;5010377;28;7401;-80
2022/11/11 15:49:37;;;;;;;;;;;;;;;;;;5011220;28;7206;-81
2022/11/11 15:52:05;;;;;;;;;;;;;;;;;;5015109;28;7062;-80
2022/11/11 15:54:34;;;;;;;;;;;;;;;;;;4997964;28;8355;-81
2022/11/11 15:57:14;;;;;;;;;;;;;;;;;;4997874;28;8477;-81
2022/11/11 15:59:40;;;;;;;;;;;;;;;;;;4998639;28;8422;-81
2022/11/11 16:02:11;;;;;;;;;;;;;;;;;;4997936;28;7487;-81
2022/11/11 16:04:37;;;;;;;;;;;;;;;;;;4997606;28;8450;-80
2022/11/11 16:07:03;;;;;;;;;;;;;;;;;;4998152;28;8287;-80
2022/11/11 16:34:27;;;;;;;;;;;;;;;;;;6051635;22;1664345;-65
2022/11/11 16:37:00;;;;;;;;;;;;;;;;;;6079656;23;7108;-65
2022/11/11 16:39:27;;;;;;;;;;;;;;;;;;6078801;23;6855;-65
2022/11/11 16:41:55;;;;;;;;;;;;;;;;;;6079801;23;7258;-65
2022/11/11 16:44:29;;;;;;;;;;;;;;;;;;6078709;23;7379;-65
2022/11/11 16:46:55;;;;;;;;;;;;;;;;;;6079390;23;7120;-65
2022/11/11 16:49:23;;;;;;;;;;;;;;;;;;6079635;23;7481;-65
2022/11/11 16:51:50;;;;;;;;;;;;;;;;;;6079875;23;7115;-65
2022/11/11 16:54:24;;;;;;;;;;;;;;;;;;6079781;23;7206;-65
2022/11/11 16:56:56;;;;;;;;;;;;;;;;;;6080009;23;7219;-65
2022/11/11 17:02:24;;;;;;;;;;;;;;;;;;6079050;23;6823;-65
2022/11/11 17:04:52;;;;;;;;;;;;;;;;;;6079492;23;7057;-65
2022/11/11 17:07:29;;;;;;;;;;;;;;;;;;6079462;23;7216;-65
2022/11/11 17:10:07;;;;;;;;;;;;;;;;;;6079054;23;7163;-65
2022/11/11 17:12:34;;;;;;;;;;;;;;;;;;6079464;23;7130;-65
2022/11/11 17:15:19;;;;;;;;;;;;;;;;;;6079836;23;7556;-65
2022/11/11 17:17:46;;;;;;;;;;;;;;;;;;6080013;23;6943;-65
2022/11/11 17:23:30;;;;;;;;;;;;;;;;;;6088604;23;6935;-65
2022/11/11 17:26:02;;;;;;;;;;;;;;;;;;6079343;23;7197;-65
2022/11/11 17:28:33;;;;;;;;;;;;;;;;;;6077334;23;7122;-65
2022/11/11 17:31:07;;;;;;;;;;;;;;;;;;6077959;23;6899;-66
2022/11/11 17:33:37;;;;;;;;;;;;;;;;;;6091044;23;7274;-65
2022/11/11 17:36:02;;;;;;;;;;;;;;;;;;6075922;23;8697;-65
2022/11/11 17:38:28;;;;;;;;;;;;;;;;;;6101434;23;7118;-65
2022/11/11 17:40:54;;;;;;;;;;;;;;;;;;6100934;23;7151;-65
2022/11/11 17:43:22;;;;;;;;;;;;;;;;;;6101041;23;7113;-65
2022/11/11 17:45:47;;;;;;;;;;;;;;;;;;6101738;23;7469;-65
2022/11/11 17:48:13;;;;;;;;;;;;;;;;;;6100561;23;7017;-65
2022/11/11 17:50:39;;;;;;;;;;;;;;;;;;6100198;23;7370;-65
2022/11/11 17:53:05;;;;;;;;;;;;;;;;;;6100827;23;6940;-65
2022/11/11 17:55:36;;;;;;;;;;;;;;;;;;6099493;23;7145;-65
2022/11/11 17:58:56;;;;;;;;;;;;;;;;;;4606711;27;15065561;-65
2022/11/11 18:01:21;;;;;;;;;;;;;;;;;;5092886;28;7184;-65
2022/11/11 18:03:47;;;;;;;;;;;;;;;;;;5092606;28;7358;-65
2022/11/11 18:06:14;;;;;;;;;;;;;;;;;;5074008;28;7971;-65
2022/11/11 18:08:39;;;;;;;;;;;;;;;;;;5092393;28;7167;-65
2022/11/11 18:11:12;;;;;;;;;;;;;;;;;;5092877;28;6935;-65
2022/11/11 18:13:38;;;;;;;;;;;;;;;;;;5091874;28;7352;-65
2022/11/11 18:16:05;;;;;;;;;;;;;;;;;;5092447;28;6980;-65
2022/11/11 18:18:32;;;;;;;;;;;;;;;;;;5092926;28;6962;-65
2022/11/11 18:21:13;;;;;;;;;;;;;;;;;;5092297;28;6967;-65
2022/11/11 18:23:39;;;;;;;;;;;;;;;;;;5091933;28;6997;-65
2022/11/11 18:26:06;;;;;;;;;;;;;;;;;;5092489;28;7007;-65
2022/11/11 18:28:33;;;;;;;;;;;;;;;;;;5073227;28;8785;-65
2022/11/11 18:31:05;;;;;;;;;;;;;;;;;;5092414;28;7129;-65
2022/11/11 18:33:31;;;;;;;;;;;;;;;;;;5092489;28;7104;-65
2022/11/11 18:36:08;;;;;;;;;;;;;;;;;;5092302;28;6962;-65
2022/11/11 18:38:34;;;;;;;;;;;;;;;;;;5091548;28;7079;-65
2022/11/11 18:41:04;;;;;;;;;;;;;;;;;;5091899;28;7129;-65
2022/11/11 18:43:47;;;;;;;;;;;;;;;;;;5091512;28;6951;-65
2022/11/11 18:46:15;;;;;;;;;;;;;;;;;;5091785;28;7150;-65
2022/11/11 18:48:42;;;;;;;;;;;;;;;;;;5091239;28;6962;-65
2022/11/11 18:51:22;;;;;;;;;;;;;;;;;;5092097;28;7380;-65
2022/11/11 18:53:48;;;;;;;;;;;;;;;;;;5091335;28;7348;-65
2022/11/11 18:56:16;;;;;;;;;;;;;;;;;;5091128;28;6792;-65
2022/11/11 18:58:46;;;;;;;;;;;;;;;;;;5090520;28;7134;-65
2022/11/11 19:01:24;;;;;;;;;;;;;;;;;;5091894;28;7206;-65
2022/11/11 19:03:51;;;;;;;;;;;;;;;;;;5091075;28;7259;-65
2022/11/11 19:06:17;;;;;;;;;;;;;;;;;;5090938;28;7357;-65
2022/11/11 19:08:42;;;;;;;;;;;;;;;;;;5085542;28;7262;-65
2022/11/11 19:11:09;;;;;;;;;;;;;;;;;;5077819;28;7258;-65
2022/11/11 19:13:44;;;;;;;;;;;;;;;;;;5078072;28;7131;-65
2022/11/11 19:16:14;;;;;;;;;;;;;;;;;;5077950;28;7042;-65
2022/11/11 19:18:40;;;;;;;;;;;;;;;;;;5076986;28;7173;-65
2022/11/11 19:21:14;;;;;;;;;;;;;;;;;;5079081;28;7131;-65
2022/11/11 19:23:41;;;;;;;;;;;;;;;;;;5077654;28;7088;-65
2022/11/11 19:26:07;;;;;;;;;;;;;;;;;;5078202;28;6942;-65
2022/11/11 19:28:35;;;;;;;;;;;;;;;;;;5078054;28;7203;-65
2022/11/11 19:31:03;;;;;;;;;;;;;;;;;;5077275;28;7180;-65
2022/11/11 19:33:31;;;;;;;;;;;;;;;;;;5077047;28;7133;-65
2022/11/11 19:35:59;;;;;;;;;;;;;;;;;;5077417;28;7086;-65
2022/11/11 19:38:33;;;;;;;;;;;;;;;;;;5077633;28;7235;-65
2022/11/11 19:41:05;;;;;;;;;;;;;;;;;;5078186;28;7346;-65
2022/11/11 19:43:41;;;;;;;;;;;;;;;;;;5076600;28;7151;-65
2022/11/11 19:48:59;;;;;;;;;;;;;;;;;;5076410;28;7095;-65
2022/11/11 19:51:28;;;;;;;;;;;;;;;;;;5078085;28;7040;-65
2022/11/11 19:53:54;;;;;;;;;;;;;;;;;;5077083;28;7108;-64
2022/11/11 19:56:21;;;;;;;;;;;;;;;;;;5077369;28;7209;-64
2022/11/11 19:58:47;;;;;;;;;;;;;;;;;;5076528;28;7196;-64
2022/11/11 20:01:25;;;;;;;;;;;;;;;;;;5084858;28;7311;-65
2022/11/11 20:04:09;;;;;;;;;;;;;;;;;;5085115;28;7302;-65
2022/11/11 20:06:35;;;;;;;;;;;;;;;;;;5085487;28;7165;-65
2022/11/11 20:09:02;;;;;;;;;;;;;;;;;;5087188;28;7182;-65
2022/11/11 20:11:28;;;;;;;;;;;;;;;;;;5085778;28;7488;-65